Time;durP1;ratioP1;P1;durP2;ratioP2;P2;SDS_P1;SDS_P2;PMS_P1;PMS_P2;Temp;Humidity;BMP_temperature;BMP_pressure;BME280_temperature;BME280_humidity;BME280_pressure;Samples;Min_cycle;Max_cycle;Signal;HPM_P1;HPM_P2
2021/11/16 00:01:15;;;;;;;48.65;31.90;;;;;;;;;;5100661;28;20048;-85
2021/11/16 00:06:51;;;;;;;52.13;32.50;;;;;;;;;;5101837;28;20424;-85
2021/11/16 00:09:17;;;;;;;54.13;31.98;;;;;;;;;;5100812;28;20028;-85
2021/11/16 00:11:43;;;;;;;56.20;34.72;;;;;;;;;;5100521;28;20032;-84
2021/11/16 00:14:09;;;;;;;57.92;36.33;;;;;;;;;;5101732;28;20031;-85
2021/11/16 00:16:42;;;;;;;56.25;35.38;;;;;;;;;;5101338;28;20441;-85
2021/11/16 00:22:17;;;;;;;60.72;37.30;;;;;;;;;;5101478;28;20023;-86
2021/11/16 00:27:24;;;;;;;62.17;37.60;;;;;;;;;;5101440;28;20240;-86
2021/11/16 00:29:50;;;;;;;57.70;36.17;;;;;;;;;;5101302;28;20115;-85
2021/11/16 00:32:16;;;;;;;59.47;37.55;;;;;;;;;;5101127;28;20028;-86
2021/11/16 00:35:19;;;;;;;59.72;38.78;;;;;;;;;;5100718;28;20035;-85
2021/11/16 00:37:45;;;;;;;;;;;;;;;;;;5101575;28;20024;-84
2021/11/16 00:40:16;;;;;;;58.92;37.42;;;;;;;;;;5101054;28;19908;-85
2021/11/16 00:42:42;;;;;;;62.80;40.15;;;;;;;;;;5099846;28;20069;-84
2021/11/16 00:45:10;;;;;;;60.80;39.33;;;;;;;;;;5101137;28;20047;-85
2021/11/16 00:47:36;;;;;;;56.13;38.17;;;;;;;;;;5099845;28;20317;-84
2021/11/16 00:56:36;;;;;;;60.20;37.30;;;;;;;;;;5100761;28;20123;-85
2021/11/16 00:59:03;;;;;;;53.38;35.60;;;;;;;;;;5100313;28;20039;-85
2021/11/16 01:01:29;;;;;;;60.30;38.60;;;;;;;;;;5100383;28;20033;-85
2021/11/16 01:03:55;;;;;;;62.47;38.80;;;;;;;;;;5100692;28;20145;-85
2021/11/16 01:06:21;;;;;;;56.90;38.55;;;;;;;;;;5100792;28;20083;-84
2021/11/16 01:08:47;;;;;;;61.70;39.55;;;;;;;;;;5100258;28;20039;-85
2021/11/16 01:11:14;;;;;;;64.25;40.00;;;;;;;;;;5100357;28;20024;-85
2021/11/16 01:13:40;;;;;;;61.35;38.88;;;;;;;;;;5099303;28;20024;-85
2021/11/16 01:16:06;;;;;;;62.45;39.72;;;;;;;;;;5100195;28;20028;-85
2021/11/16 01:18:32;;;;;;;61.80;38.97;;;;;;;;;;5099177;28;20364;-85
2021/11/16 01:20:58;;;;;;;53.15;36.55;;;;;;;;;;5100147;28;20099;-85
2021/11/16 01:23:24;;;;;;;55.90;37.45;;;;;;;;;;5100091;28;20428;-85
2021/11/16 01:25:51;;;;;;;59.53;38.67;;;;;;;;;;5099132;28;20112;-85
2021/11/16 01:28:22;;;;;;;58.90;38.33;;;;;;;;;;5099787;28;20099;-85
2021/11/16 01:30:50;;;;;;;64.65;39.17;;;;;;;;;;5098836;28;20024;-85
2021/11/16 01:33:26;;;;;;;63.75;40.05;;;;;;;;;;5098965;28;20325;-85
2021/11/16 01:36:30;;;;;;;58.38;37.97;;;;;;;;;;5099319;28;20055;-85
2021/11/16 01:38:58;;;;;;;61.75;37.63;;;;;;;;;;5099722;28;20024;-85
2021/11/16 01:41:25;;;;;;;59.67;38.90;;;;;;;;;;5098744;28;20024;-84
2021/11/16 01:43:51;;;;;;;59.88;37.83;;;;;;;;;;5099922;28;20020;-84
2021/11/16 01:46:18;;;;;;;57.00;37.33;;;;;;;;;;5098666;28;20127;-85
2021/11/16 01:49:03;;;;;;;60.58;37.65;;;;;;;;;;5098597;28;20020;-84
2021/11/16 01:51:30;;;;;;;62.25;38.00;;;;;;;;;;5098562;28;20444;-85
2021/11/16 01:54:02;;;;;;;56.88;37.70;;;;;;;;;;5099519;28;20028;-85
2021/11/16 01:56:54;;;;;;;55.92;37.10;;;;;;;;;;5097513;28;20483;-86
2021/11/16 01:59:20;;;;;;;56.03;36.47;;;;;;;;;;5096521;28;20063;-86
2021/11/16 02:01:48;;;;;;;57.25;36.83;;;;;;;;;;5097542;28;20028;-86
2021/11/16 02:04:15;;;;;;;58.35;37.97;;;;;;;;;;5098601;28;20020;-85
2021/11/16 02:06:42;;;;;;;57.78;35.53;;;;;;;;;;5098619;28;20047;-85
2021/11/16 02:09:09;;;;;;;59.83;37.00;;;;;;;;;;5098295;28;20097;-85
2021/11/16 02:11:36;;;;;;;58.47;37.85;;;;;;;;;;5097331;28;20028;-85
2021/11/16 02:14:03;;;;;;;56.05;38.47;;;;;;;;;;5098177;28;20020;-85
2021/11/16 02:16:32;;;;;;;59.30;37.42;;;;;;;;;;5098161;28;20055;-85
2021/11/16 02:25:05;;;;;;;60.28;37.92;;;;;;;;;;5098131;28;20103;-86
2021/11/16 02:27:31;;;;;;;59.13;37.22;;;;;;;;;;5098436;28;20050;-86
2021/11/16 02:29:57;;;;;;;64.72;38.50;;;;;;;;;;5097255;28;20044;-86
2021/11/16 02:32:24;;;;;;;58.55;37.75;;;;;;;;;;5097922;28;20056;-87
2021/11/16 02:34:50;;;;;;;61.47;40.80;;;;;;;;;;5098099;28;20107;-86
2021/11/16 02:37:16;;;;;;;61.35;42.00;;;;;;;;;;5098064;28;20032;-86
2021/11/16 02:39:43;;;;;;;64.32;41.15;;;;;;;;;;5097642;28;20068;-86
2021/11/16 02:42:10;;;;;;;66.47;43.53;;;;;;;;;;5097995;28;20398;-86
2021/11/16 02:44:36;;;;;;;73.32;45.45;;;;;;;;;;5096676;28;20024;-84
2021/11/16 02:47:02;;;;;;;73.35;45.35;;;;;;;;;;5097972;28;20048;-85
2021/11/16 02:50:05;;;;;;;68.20;45.13;;;;;;;;;;5096554;28;20338;-84
2021/11/16 02:52:31;;;;;;;68.60;44.63;;;;;;;;;;5096496;28;20042;-85
2021/11/16 02:54:57;;;;;;;70.63;46.17;;;;;;;;;;5038350;28;1682175;-86
2021/11/16 02:57:24;;;;;;;67.82;43.40;;;;;;;;;;5097427;28;20032;-86
2021/11/16 02:59:50;;;;;;;68.88;45.47;;;;;;;;;;5098141;28;20456;-86
2021/11/16 03:02:16;;;;;;;67.18;44.13;;;;;;;;;;5098329;28;20027;-86
2021/11/16 03:04:45;;;;;;;67.80;43.17;;;;;;;;;;5098547;28;20016;-85
2021/11/16 03:07:12;;;;;;;69.28;45.13;;;;;;;;;;5098519;28;20095;-86
2021/11/16 03:09:47;;;;;;;73.70;45.50;;;;;;;;;;5098420;28;20034;-86
2021/11/16 03:12:14;;;;;;;67.07;44.70;;;;;;;;;;5098060;28;20024;-86
2021/11/16 03:14:40;;;;;;;65.80;42.38;;;;;;;;;;5098385;28;20020;-86
2021/11/16 03:17:06;;;;;;;72.32;45.13;;;;;;;;;;5098151;28;20352;-86
2021/11/16 03:19:33;;;;;;;69.75;44.85;;;;;;;;;;5098210;28;20055;-86
2021/11/16 03:22:00;;;;;;;67.32;43.38;;;;;;;;;;5098272;28;20047;-85
2021/11/16 03:24:32;;;;;;;68.43;43.67;;;;;;;;;;5097356;28;20124;-86
2021/11/16 03:27:00;;;;;;;69.80;42.97;;;;;;;;;;5098348;28;20020;-85
2021/11/16 03:29:26;;;;;;;64.15;41.17;;;;;;;;;;5096905;28;20020;-86
2021/11/16 03:32:09;;;;;;;64.30;42.15;;;;;;;;;;5097980;28;20034;-86
2021/11/16 03:34:36;;;;;;;67.00;42.58;;;;;;;;;;5096942;28;20428;-86
2021/11/16 03:37:03;;;;;;;68.03;40.55;;;;;;;;;;5097121;28;20032;-85
2021/11/16 03:39:29;;;;;;;64.95;42.25;;;;;;;;;;5096707;28;20162;-85
2021/11/16 03:41:56;;;;;;;68.53;41.17;;;;;;;;;;5097660;28;20016;-85
2021/11/16 03:44:24;;;;;;;56.92;37.83;;;;;;;;;;5097904;28;20031;-85
2021/11/16 03:46:50;;;;;;;67.75;40.30;;;;;;;;;;5098040;28;20088;-85
2021/11/16 03:49:16;;;;;;;64.40;40.25;;;;;;;;;;5096667;28;20111;-86
2021/11/16 03:51:44;;;;;;;61.65;41.03;;;;;;;;;;5097474;28;20070;-85
2021/11/16 03:54:10;;;;;;;60.35;39.58;;;;;;;;;;5096559;28;20471;-86
2021/11/16 03:56:37;;;;;;;62.72;39.72;;;;;;;;;;5097580;28;20028;-86
2021/11/16 03:59:03;;;;;;;57.67;37.55;;;;;;;;;;5097445;28;20024;-86
2021/11/16 04:01:30;;;;;;;55.00;36.22;;;;;;;;;;5097549;28;20391;-86
2021/11/16 04:03:58;;;;;;;52.20;35.60;;;;;;;;;;5096562;28;20035;-86
2021/11/16 04:09:30;;;;;;;55.80;34.03;;;;;;;;;;5097825;28;20039;-86
2021/11/16 04:11:56;;;;;;;56.03;35.15;;;;;;;;;;5097984;28;20086;-86
2021/11/16 04:14:22;;;;;;;58.65;35.72;;;;;;;;;;5097645;28;20024;-85
2021/11/16 04:16:50;;;;;;;52.13;34.30;;;;;;;;;;5097722;28;20032;-86
2021/11/16 04:19:16;;;;;;;49.67;33.08;;;;;;;;;;5096381;28;20031;-86
2021/11/16 04:24:46;;;;;;;51.38;33.42;;;;;;;;;;5097469;28;20031;-86
2021/11/16 04:27:12;;;;;;;50.10;32.60;;;;;;;;;;5096526;28;20020;-85
2021/11/16 04:29:38;;;;;;;53.17;33.40;;;;;;;;;;5097301;28;20081;-85
2021/11/16 04:32:04;;;;;;;51.67;32.92;;;;;;;;;;5097311;28;20058;-84
2021/11/16 04:34:30;;;;;;;45.83;31.08;;;;;;;;;;5097142;28;20028;-85
2021/11/16 04:40:00;;;;;;;55.28;32.30;;;;;;;;;;5097384;28;20035;-86
2021/11/16 04:42:27;;;;;;;57.40;33.78;;;;;;;;;;5096216;28;20078;-86
2021/11/16 04:44:53;;;;;;;55.90;32.85;;;;;;;;;;5100902;28;20027;-86
2021/11/16 04:47:32;;;;;;;55.17;33.80;;;;;;;;;;5101304;28;20031;-86
2021/11/16 04:50:14;;;;;;;55.80;33.65;;;;;;;;;;5101164;28;20103;-86
2021/11/16 04:52:52;;;;;;;53.40;33.22;;;;;;;;;;5099630;28;20020;-85
2021/11/16 04:55:29;;;;;;;127.45;61.22;;;;;;;;;;5099863;28;20100;-86
2021/11/16 05:03:24;;;;;;;78.32;44.33;;;;;;;;;;5100877;28;20389;-85
2021/11/16 05:05:50;;;;;;;63.85;37.63;;;;;;;;;;5099737;28;20072;-85
2021/11/16 05:08:16;;;;;;;56.47;34.95;;;;;;;;;;5100481;28;20024;-85
2021/11/16 05:10:42;;;;;;;55.17;34.80;;;;;;;;;;5100568;28;20058;-85
2021/11/16 05:13:08;;;;;;;75.32;40.95;;;;;;;;;;5100260;28;20433;-85
2021/11/16 05:15:36;;;;;;;88.38;43.85;;;;;;;;;;5100214;28;20418;-85
2021/11/16 05:18:03;;;;;;;98.18;47.45;;;;;;;;;;5099553;28;20036;-85
2021/11/16 05:20:29;;;;;;;69.40;40.13;;;;;;;;;;5100209;28;20405;-85
2021/11/16 05:22:55;;;;;;;48.95;32.33;;;;;;;;;;5099884;28;20400;-86
2021/11/16 05:25:21;;;;;;;47.38;30.95;;;;;;;;;;5099931;28;20107;-85
2021/11/16 05:27:48;;;;;;;47.92;29.33;;;;;;;;;;5099153;28;20032;-85
2021/11/16 05:30:15;;;;;;;49.50;27.42;;;;;;;;;;5099797;28;20071;-85
2021/11/16 05:32:42;;;;;;;48.90;28.35;;;;;;;;;;5079565;28;20028;-85
2021/11/16 05:35:09;;;;;;;43.08;27.48;;;;;;;;;;5078473;28;20391;-85
2021/11/16 05:37:35;;;;;;;43.72;28.65;;;;;;;;;;5082766;28;20035;-85
2021/11/16 05:40:02;;;;;;;40.47;25.90;;;;;;;;;;5098946;28;20063;-86
2021/11/16 05:42:28;;;;;;;40.85;25.00;;;;;;;;;;5089646;28;20318;-84
2021/11/16 05:44:55;;;;;;;37.80;24.85;;;;;;;;;;5090651;28;20103;-86
2021/11/16 05:47:21;;;;;;;46.55;29.00;;;;;;;;;;5099691;28;20020;-84
2021/11/16 05:49:48;;;;;;;37.42;25.10;;;;;;;;;;5098487;28;20023;-83
2021/11/16 05:55:18;;;;;;;43.13;26.27;;;;;;;;;;5093231;28;20397;-85
2021/11/16 05:57:48;;;;;;;46.35;28.73;;;;;;;;;;5099715;28;20028;-90
2021/11/16 06:00:15;;;;;;;52.20;27.15;;;;;;;;;;5085702;28;20020;-89
2021/11/16 06:02:41;;;;;;;43.33;27.02;;;;;;;;;;5079445;28;20307;-89
2021/11/16 06:05:07;;;;;;;43.15;27.88;;;;;;;;;;5079841;28;20098;-89
2021/11/16 06:07:33;;;;;;;39.13;26.48;;;;;;;;;;5079202;28;20438;-90
2021/11/16 06:09:59;;;;;;;36.80;24.77;;;;;;;;;;5079354;28;20310;-89
2021/11/16 06:12:25;;;;;;;34.13;22.77;;;;;;;;;;5078198;28;20052;-90
2021/11/16 06:14:51;;;;;;;34.72;22.55;;;;;;;;;;5078259;28;20040;-89
2021/11/16 06:17:20;;;;;;;33.17;22.23;;;;;;;;;;5079209;28;20028;-90
2021/11/16 06:19:46;;;;;;;58.17;32.92;;;;;;;;;;5078748;28;20108;-89
2021/11/16 06:25:16;;;;;;;55.08;34.60;;;;;;;;;;5079156;28;20031;-89
2021/11/16 06:27:42;;;;;;;41.03;26.40;;;;;;;;;;5077986;28;20027;-88
2021/11/16 06:30:08;;;;;;;33.97;23.00;;;;;;;;;;5077718;28;20052;-90
2021/11/16 06:32:35;;;;;;;37.08;23.67;;;;;;;;;;5078822;28;20037;-89
2021/11/16 06:35:01;;;;;;;41.42;26.33;;;;;;;;;;5078820;28;20099;-89
2021/11/16 06:40:32;;;;;;;46.80;28.23;;;;;;;;;;5078388;28;20058;-89
2021/11/16 06:42:58;;;;;;;63.47;33.53;;;;;;;;;;5078373;28;20025;-89
2021/11/16 06:45:24;;;;;;;65.00;32.92;;;;;;;;;;5078739;28;20024;-89
2021/11/16 06:47:51;;;;;;;72.97;33.55;;;;;;;;;;5077522;28;20021;-90
2021/11/16 06:56:25;;;;;;;121.75;41.58;;;;;;;;;;5077959;28;20063;-89
2021/11/16 06:58:51;;;;;;;113.45;49.25;;;;;;;;;;5078225;28;20036;-89
2021/11/16 07:01:18;;;;;;;119.53;51.78;;;;;;;;;;5077410;28;20037;-89
2021/11/16 07:03:50;;;;;;;128.93;51.83;;;;;;;;;;5077928;28;20027;-89
2021/11/16 07:12:25;;;;;;;105.88;39.42;;;;;;;;;;5078117;28;20032;-89
2021/11/16 07:14:51;;;;;;;64.45;31.42;;;;;;;;;;5078168;28;20028;-89
2021/11/16 07:17:18;;;;;;;65.40;31.17;;;;;;;;;;5078102;28;20315;-89
2021/11/16 07:19:44;;;;;;;43.20;25.73;;;;;;;;;;5078414;28;20031;-89
2021/11/16 07:22:12;;;;;;;47.38;27.17;;;;;;;;;;5078054;28;20021;-89
2021/11/16 07:24:43;;;;;;;42.65;26.40;;;;;;;;;;5077739;28;20024;-89
2021/11/16 07:27:10;;;;;;;35.78;23.25;;;;;;;;;;5077258;28;20047;-89
2021/11/16 07:29:40;;;;;;;40.20;23.48;;;;;;;;;;5077769;28;20055;-89
2021/11/16 07:32:07;;;;;;;42.45;29.83;;;;;;;;;;5076840;28;20036;-89
2021/11/16 07:34:34;;;;;;;60.75;38.50;;;;;;;;;;5077870;28;20430;-89
2021/11/16 07:43:08;;;;;;;38.38;21.75;;;;;;;;;;5077840;28;20314;-90
2021/11/16 07:45:40;;;;;;;33.92;20.98;;;;;;;;;;5077801;28;20021;-89
2021/11/16 07:48:07;;;;;;;36.05;21.83;;;;;;;;;;5076541;28;20445;-89
2021/11/16 07:50:33;;;;;;;37.55;21.05;;;;;;;;;;5077714;28;20025;-90
2021/11/16 07:53:09;;;;;;;35.13;19.55;;;;;;;;;;5077486;28;20119;-89
2021/11/16 07:55:36;;;;;;;33.65;19.10;;;;;;;;;;5077339;28;20048;-89
2021/11/16 07:58:06;;;;;;;31.70;18.05;;;;;;;;;;5076514;28;20058;-89
2021/11/16 08:00:34;;;;;;;29.27;17.05;;;;;;;;;;5076421;28;20063;-90
2021/11/16 08:03:07;;;;;;;33.35;16.35;;;;;;;;;;5077580;28;20020;-89
2021/11/16 08:05:48;;;;;;;23.70;14.23;;;;;;;;;;5076463;28;20395;-90
2021/11/16 08:13:50;;;;;;;26.48;13.55;;;;;;;;;;5075862;28;20166;-90
2021/11/16 08:16:16;;;;;;;20.63;11.85;;;;;;;;;;5075958;28;20033;-89
2021/11/16 08:18:47;;;;;;;19.95;12.68;;;;;;;;;;5077698;28;20021;-90
2021/11/16 08:24:17;;;;;;;29.17;14.07;;;;;;;;;;5079849;28;20038;-89
2021/11/16 08:26:44;;;;;;;30.00;17.00;;;;;;;;;;5079470;28;20021;-90
2021/11/16 08:29:12;;;;;;;28.45;15.50;;;;;;;;;;5079284;28;20037;-89
2021/11/16 08:31:46;;;;;;;28.10;16.83;;;;;;;;;;5079568;28;20090;-90
2021/11/16 08:34:12;;;;;;;43.55;26.77;;;;;;;;;;5079428;28;20053;-89
2021/11/16 08:39:46;;;;;;;28.23;14.77;;;;;;;;;;5079500;28;20063;-89
2021/11/16 08:42:17;;;;;;;22.95;15.52;;;;;;;;;;5062538;28;20024;-88
2021/11/16 08:44:48;;;;;;;43.55;26.70;;;;;;;;;;5062111;28;20052;-89
2021/11/16 08:47:14;;;;;;;46.60;27.38;;;;;;;;;;5079582;28;20032;-89
2021/11/16 08:49:41;;;;;;;26.90;14.90;;;;;;;;;;5085428;28;20028;-89
2021/11/16 08:52:28;;;;;;;34.97;18.70;;;;;;;;;;5101300;28;20028;-90
2021/11/16 08:54:56;;;;;;;27.00;15.00;;;;;;;;;;5099970;28;20036;-90
2021/11/16 08:57:23;;;;;;;27.52;14.35;;;;;;;;;;5100061;28;20032;-90
2021/11/16 08:59:49;;;;;;;45.15;24.75;;;;;;;;;;5100524;28;20035;-90
2021/11/16 09:02:17;;;;;;;37.17;19.85;;;;;;;;;;5100323;28;20028;-89
2021/11/16 09:04:43;;;;;;;30.63;15.63;;;;;;;;;;5101083;28;20357;-91
2021/11/16 09:07:17;;;;;;;28.33;16.67;;;;;;;;;;5099876;28;20364;-90
2021/11/16 09:09:53;;;;;;;31.50;16.42;;;;;;;;;;5099558;28;20024;-90
2021/11/16 09:12:19;;;;;;;20.27;12.48;;;;;;;;;;5100046;28;20028;-90
2021/11/16 09:14:57;;;;;;;29.75;16.75;;;;;;;;;;5100932;28;20020;-90
2021/11/16 09:17:23;;;;;;;21.55;12.27;;;;;;;;;;5100637;28;20028;-91
2021/11/16 09:19:49;;;;;;;24.83;14.48;;;;;;;;;;5099283;28;20032;-90
2021/11/16 09:25:25;;;;;;;23.98;14.85;;;;;;;;;;5100510;28;20050;-91
2021/11/16 09:27:58;;;;;;;;;;;;;;;;;;5100888;28;20035;-89
2021/11/16 09:30:30;;;;;;;27.10;15.65;;;;;;;;;;5098863;28;20187;-89
2021/11/16 09:33:00;;;;;;;26.38;17.13;;;;;;;;;;5100317;28;20032;-89
2021/11/16 09:35:45;;;;;;;32.42;19.02;;;;;;;;;;5099902;28;20070;-90
2021/11/16 09:41:16;;;;;;;29.67;15.50;;;;;;;;;;5100097;28;20127;-90
2021/11/16 09:43:42;;;;;;;20.80;13.30;;;;;;;;;;5099412;28;20024;-90
2021/11/16 09:46:10;;;;;;;20.83;12.68;;;;;;;;;;5099756;28;20119;-91
2021/11/16 09:48:38;;;;;;;22.45;11.88;;;;;;;;;;5098876;28;20034;-90
2021/11/16 09:54:08;;;;;;;19.17;13.30;;;;;;;;;;5100071;28;20058;-90
2021/11/16 09:56:35;;;;;;;24.38;11.73;;;;;;;;;;5099560;28;20047;-90
2021/11/16 09:59:01;;;;;;;20.08;12.80;;;;;;;;;;5098500;28;20060;-90
2021/11/16 10:01:29;;;;;;;21.23;11.52;;;;;;;;;;5099459;28;20028;-90
2021/11/16 10:04:09;;;;;;;22.10;12.85;;;;;;;;;;5098591;28;20042;-90
2021/11/16 10:09:42;;;;;;;19.40;12.65;;;;;;;;;;5099374;28;20154;-90
2021/11/16 10:12:08;;;;;;;19.65;10.85;;;;;;;;;;5098423;28;20027;-90
2021/11/16 10:14:34;;;;;;;22.13;11.98;;;;;;;;;;5099614;28;20099;-90
2021/11/16 10:17:00;;;;;;;16.92;11.20;;;;;;;;;;5099223;28;20111;-90
2021/11/16 10:19:26;;;;;;;19.40;12.13;;;;;;;;;;5099027;28;20410;-90
2021/11/16 10:25:17;;;;;;;42.55;22.35;;;;;;;;;;5099393;28;20081;-90
2021/11/16 10:27:44;;;;;;;31.70;19.17;;;;;;;;;;5098950;28;20024;-88
2021/11/16 10:30:11;;;;;;;20.25;12.73;;;;;;;;;;5098278;28;20051;-89
2021/11/16 10:32:37;;;;;;;19.45;12.13;;;;;;;;;;5098993;28;20409;-88
2021/11/16 10:35:15;;;;;;;19.73;12.85;;;;;;;;;;5098969;28;20101;-89
2021/11/16 10:40:45;;;;;;;19.58;11.57;;;;;;;;;;5098168;28;20036;-89
2021/11/16 10:43:11;;;;;;;25.75;13.77;;;;;;;;;;5097804;28;20020;-89
2021/11/16 10:45:46;;;;;;;27.98;18.27;;;;;;;;;;5098967;28;20018;-90
2021/11/16 10:48:14;;;;;;;18.95;13.43;;;;;;;;;;5098092;28;20096;-89
2021/11/16 10:50:42;;;;;;;21.13;12.23;;;;;;;;;;5097829;28;20414;-80
2021/11/16 10:53:27;;;;;;;21.00;11.48;;;;;;;;;;5097827;28;20034;-79
2021/11/16 10:55:58;;;;;;;20.02;12.13;;;;;;;;;;5096951;28;20086;-79
2021/11/16 10:58:32;;;;;;;19.50;13.38;;;;;;;;;;5097009;28;20059;-78
2021/11/16 11:01:03;;;;;;;18.35;12.43;;;;;;;;;;5097818;28;20044;-81
2021/11/16 11:03:42;;;;;;;19.65;12.65;;;;;;;;;;5097835;28;20020;-80
2021/11/16 11:06:20;;;;;;;20.55;13.25;;;;;;;;;;5097001;28;20307;-81
2021/11/16 11:08:56;;;;;;;24.23;13.98;;;;;;;;;;5097591;28;20046;-80
2021/11/16 11:11:33;;;;;;;24.63;14.07;;;;;;;;;;5097677;28;20023;-80
2021/11/16 11:14:04;;;;;;;22.30;14.52;;;;;;;;;;5097674;28;20111;-80
2021/11/16 11:16:32;;;;;;;31.98;16.08;;;;;;;;;;5097507;28;20024;-80
2021/11/16 11:18:58;;;;;;;28.27;16.77;;;;;;;;;;5097537;28;20028;-88
2021/11/16 11:21:29;;;;;;;24.38;16.00;;;;;;;;;;5098044;28;20337;-81
2021/11/16 11:24:06;;;;;;;25.95;15.38;;;;;;;;;;5096326;28;20432;-80
2021/11/16 11:26:39;;;;;;;23.40;14.70;;;;;;;;;;5096550;28;20035;-81
2021/11/16 11:29:25;;;;;;;28.25;15.55;;;;;;;;;;5097270;28;20024;-79
2021/11/16 11:32:06;;;;;;;21.75;12.60;;;;;;;;;;5097384;28;20032;-79
2021/11/16 11:34:33;;;;;;;21.45;14.75;;;;;;;;;;5096242;28;20028;-79
2021/11/16 11:37:08;;;;;;;24.83;14.40;;;;;;;;;;5097405;28;20027;-80
2021/11/16 11:39:34;;;;;;;21.27;13.93;;;;;;;;;;5096185;28;20024;-80
2021/11/16 11:42:01;;;;;;;26.23;14.50;;;;;;;;;;5097255;28;20065;-80
2021/11/16 11:44:37;;;;;;;28.80;17.13;;;;;;;;;;5097483;28;20012;-80
2021/11/16 11:47:03;;;;;;;34.17;19.73;;;;;;;;;;5097372;28;20426;-84
2021/11/16 11:49:30;;;;;;;20.70;14.43;;;;;;;;;;5097485;28;20024;-81
2021/11/16 11:51:58;;;;;;;23.42;14.57;;;;;;;;;;5098172;28;20047;-82
2021/11/16 11:54:24;;;;;;;22.25;15.20;;;;;;;;;;5101525;28;20035;-82
2021/11/16 11:56:50;;;;;;;27.75;16.50;;;;;;;;;;5101344;28;20054;-82
2021/11/16 11:59:18;;;;;;;26.60;16.52;;;;;;;;;;5101498;28;20028;-82
2021/11/16 12:01:44;;;;;;;22.05;14.43;;;;;;;;;;5101576;28;20028;-82
2021/11/16 12:04:13;;;;;;;22.88;13.77;;;;;;;;;;5100568;28;20056;-82
2021/11/16 12:06:39;;;;;;;28.67;15.43;;;;;;;;;;5101330;28;20036;-82
2021/11/16 12:12:09;;;;;;;21.65;14.77;;;;;;;;;;5101556;28;20122;-82
2021/11/16 12:14:40;;;;;;;22.60;15.88;;;;;;;;;;5101112;28;20031;-82
2021/11/16 12:17:09;;;;;;;53.03;36.30;;;;;;;;;;5101503;28;20028;-82
2021/11/16 12:19:50;;;;;;;30.00;16.65;;;;;;;;;;5100101;28;20028;-82
2021/11/16 12:22:26;;;;;;;27.08;16.35;;;;;;;;;;5101231;28;20020;-82
2021/11/16 12:24:53;;;;;;;26.45;17.50;;;;;;;;;;5101022;28;20020;-82
2021/11/16 12:27:20;;;;;;;28.75;17.52;;;;;;;;;;5100965;28;20028;-81
2021/11/16 12:29:48;;;;;;;36.92;20.88;;;;;;;;;;5100059;28;20418;-81
2021/11/16 12:32:20;;;;;;;39.00;20.95;;;;;;;;;;5099855;28;20028;-81
2021/11/16 12:34:50;;;;;;;34.72;19.23;;;;;;;;;;5099754;28;20024;-81
2021/11/16 12:37:28;;;;;;;35.40;19.85;;;;;;;;;;5100964;28;20020;-81
2021/11/16 12:40:14;;;;;;;31.23;18.10;;;;;;;;;;5100785;28;20085;-81
2021/11/16 12:43:00;;;;;;;30.10;17.90;;;;;;;;;;5058249;28;20072;-81
2021/11/16 12:45:59;;;;;;;35.55;21.02;;;;;;;;;;5058274;28;20541;-82
2021/11/16 12:48:41;;;;;;;28.02;18.58;;;;;;;;;;4998988;28;20125;-81
2021/11/16 12:51:17;;;;;;;31.38;16.85;;;;;;;;;;4998576;28;20031;-82
2021/11/16 12:54:03;;;;;;;32.72;17.40;;;;;;;;;;4998850;28;20078;-82
2021/11/16 12:56:45;;;;;;;26.80;16.67;;;;;;;;;;4998794;28;20062;-82
2021/11/16 12:59:17;;;;;;;26.85;16.00;;;;;;;;;;4998694;28;20114;-82
2021/11/16 13:01:45;;;;;;;34.70;21.70;;;;;;;;;;4998818;28;20027;-82
2021/11/16 13:04:12;;;;;;;26.45;15.77;;;;;;;;;;4998135;28;20026;-82
2021/11/16 13:06:40;;;;;;;29.25;17.10;;;;;;;;;;4998348;28;20340;-82
2021/11/16 13:09:07;;;;;;;35.22;20.38;;;;;;;;;;4998696;28;20025;-82
2021/11/16 13:11:44;;;;;;;29.75;17.83;;;;;;;;;;4998627;28;20026;-81
2021/11/16 13:14:12;;;;;;;30.05;17.42;;;;;;;;;;4998965;28;20455;-82
2021/11/16 13:16:39;;;;;;;27.55;16.48;;;;;;;;;;4998225;28;20428;-82
2021/11/16 13:19:05;;;;;;;28.25;16.88;;;;;;;;;;5011619;28;20055;-82
2021/11/16 13:21:39;;;;;;;28.70;17.30;;;;;;;;;;5057823;28;20021;-82
2021/11/16 13:24:37;;;;;;;26.45;16.65;;;;;;;;;;5067324;28;20034;-82
2021/11/16 13:27:03;;;;;;;26.48;16.23;;;;;;;;;;5099089;28;20043;-83
2021/11/16 13:29:31;;;;;;;24.70;16.48;;;;;;;;;;5099683;28;20028;-82
2021/11/16 13:31:57;;;;;;;25.50;16.85;;;;;;;;;;5099784;28;20028;-82
2021/11/16 13:34:31;;;;;;;26.30;17.73;;;;;;;;;;5098647;28;20031;-83
2021/11/16 13:36:59;;;;;;;24.83;17.10;;;;;;;;;;5099531;28;20030;-82
2021/11/16 13:39:28;;;;;;;27.85;17.60;;;;;;;;;;5098498;28;20039;-82
2021/11/16 13:41:57;;;;;;;27.35;17.05;;;;;;;;;;5099661;28;20024;-82
2021/11/16 13:44:30;;;;;;;24.40;16.13;;;;;;;;;;5099381;28;20046;-83
2021/11/16 13:47:06;;;;;;;27.75;16.75;;;;;;;;;;5098654;28;20341;-83
2021/11/16 13:49:41;;;;;;;26.40;17.73;;;;;;;;;;5099572;28;20429;-83
2021/11/16 13:55:15;;;;;;;29.90;17.10;;;;;;;;;;5097993;28;20055;-82
2021/11/16 13:57:43;;;;;;;25.67;17.40;;;;;;;;;;5099526;28;20380;-83
2021/11/16 14:00:20;;;;;;;29.33;17.42;;;;;;;;;;5099265;28;20024;-83
2021/11/16 14:02:52;;;;;;;30.33;19.02;;;;;;;;;;5099129;28;20047;-82
2021/11/16 14:05:20;;;;;;;28.75;17.85;;;;;;;;;;5099177;28;20035;-83
2021/11/16 14:07:50;;;;;;;29.80;17.75;;;;;;;;;;5098331;28;20056;-83
2021/11/16 14:10:16;;;;;;;31.63;18.40;;;;;;;;;;5098953;28;20024;-83
2021/11/16 14:12:43;;;;;;;30.23;19.05;;;;;;;;;;5099025;28;20061;-83
2021/11/16 14:15:15;;;;;;;33.58;19.65;;;;;;;;;;5098607;28;20103;-83
2021/11/16 14:17:41;;;;;;;31.33;18.65;;;;;;;;;;5098714;28;20016;-83
2021/11/16 14:20:08;;;;;;;35.55;19.73;;;;;;;;;;5098795;28;20024;-83
2021/11/16 14:22:41;;;;;;;30.75;19.48;;;;;;;;;;5099126;28;20023;-83
2021/11/16 14:25:33;;;;;;;35.90;19.48;;;;;;;;;;5098681;28;20406;-83
2021/11/16 14:28:04;;;;;;;39.83;24.02;;;;;;;;;;5096633;28;20465;-83
2021/11/16 14:30:32;;;;;;;35.47;20.65;;;;;;;;;;5097449;28;20115;-86
2021/11/16 14:33:05;;;;;;;36.83;21.08;;;;;;;;;;5097984;28;20036;-83
2021/11/16 14:35:32;;;;;;;31.02;18.77;;;;;;;;;;5098559;28;20020;-83
2021/11/16 14:37:58;;;;;;;38.33;22.13;;;;;;;;;;5097726;28;20446;-83
2021/11/16 14:40:25;;;;;;;32.80;20.50;;;;;;;;;;5098394;28;20414;-83
2021/11/16 14:42:52;;;;;;;32.88;19.33;;;;;;;;;;5097482;28;20047;-83
2021/11/16 14:45:21;;;;;;;32.15;19.88;;;;;;;;;;5098287;28;20301;-83
2021/11/16 14:47:47;;;;;;;33.20;21.23;;;;;;;;;;5096056;28;20032;-83
2021/11/16 14:50:20;;;;;;;34.63;20.77;;;;;;;;;;5098044;28;20314;-83
2021/11/16 14:59:25;;;;;;;31.70;19.92;;;;;;;;;;5098422;28;20387;-83
2021/11/16 15:01:57;;;;;;;32.15;20.45;;;;;;;;;;5097154;28;20025;-82
2021/11/16 15:04:25;;;;;;;32.60;20.23;;;;;;;;;;5098396;28;20024;-82
2021/11/16 15:07:00;;;;;;;33.45;21.27;;;;;;;;;;5097781;28;20416;-82
2021/11/16 15:10:05;;;;;;;35.08;21.55;;;;;;;;;;5098274;28;20061;-83
2021/11/16 15:12:31;;;;;;;39.88;23.77;;;;;;;;;;5039213;28;20029;-83
2021/11/16 15:15:04;;;;;;;43.28;25.42;;;;;;;;;;5055859;28;20056;-83
2021/11/16 15:17:42;;;;;;;53.83;29.05;;;;;;;;;;5055646;28;20106;-83
2021/11/16 15:20:23;;;;;;;58.25;32.15;;;;;;;;;;5055539;28;20036;-83
2021/11/16 15:23:06;;;;;;;73.55;36.53;;;;;;;;;;5038849;28;20064;-82
2021/11/16 15:25:33;;;;;;;72.72;37.60;;;;;;;;;;5038813;28;20033;-82
2021/11/16 15:28:04;;;;;;;57.92;33.75;;;;;;;;;;5055239;28;20053;-82
2021/11/16 15:30:33;;;;;;;56.67;32.92;;;;;;;;;;5055433;28;20049;-82
2021/11/16 15:33:10;;;;;;;51.22;29.75;;;;;;;;;;5038870;28;20039;-82
2021/11/16 15:35:39;;;;;;;47.08;26.85;;;;;;;;;;5055509;28;20029;-82
2021/11/16 15:38:44;;;;;;;47.97;27.27;;;;;;;;;;5055443;28;20036;-82
2021/11/16 15:41:20;;;;;;;49.13;26.77;;;;;;;;;;4995815;28;20061;-83
2021/11/16 15:46:34;;;;;;;59.08;31.35;;;;;;;;;;5053867;28;20026;-82
2021/11/16 15:49:27;;;;;;;62.83;33.25;;;;;;;;;;5035003;28;20141;-81
2021/11/16 15:52:04;;;;;;;53.22;31.77;;;;;;;;;;5036948;28;20335;-82
2021/11/16 15:58:06;;;;;;;43.10;25.67;;;;;;;;;;5048186;28;20152;-82
2021/11/16 16:00:32;;;;;;;49.40;28.02;;;;;;;;;;5035797;28;20200;-83
2021/11/16 16:03:11;;;;;;;47.65;26.75;;;;;;;;;;5046267;28;20029;-84
2021/11/16 16:05:37;;;;;;;55.28;28.95;;;;;;;;;;5055337;28;20451;-84
2021/11/16 16:08:11;;;;;;;49.03;29.42;;;;;;;;;;5055569;28;20025;-86
2021/11/16 16:10:41;;;;;;;50.00;28.40;;;;;;;;;;5036997;28;20442;-84
2021/11/16 16:13:10;;;;;;;55.50;29.30;;;;;;;;;;5097280;28;20115;-86
2021/11/16 16:15:38;;;;;;;60.60;32.42;;;;;;;;;;5096286;28;20032;-84
2021/11/16 16:18:28;;;;;;;69.07;34.40;;;;;;;;;;5096296;28;20047;-84
2021/11/16 16:21:01;;;;;;;73.45;36.40;;;;;;;;;;5096566;28;20032;-84
2021/11/16 16:23:39;;;;;;;71.93;36.20;;;;;;;;;;5097573;28;20031;-84
2021/11/16 16:26:05;;;;;;;75.35;37.70;;;;;;;;;;5097558;28;20028;-84
2021/11/16 16:28:31;;;;;;;70.85;36.67;;;;;;;;;;5097373;28;20103;-84